Tiempo atmosférico en la estación meteorológica de Canfranc, Huesca (1160 m.)

Fecha
DESCASC
Temp. máxima en grados centígrados (hora)
DESCASC
Temp. mínima en grados centígrados (hora)
DESCASC
Temp. media en grados centígrados
DESCASC
Racha de viento máxima en m/sg (hora)
DESCASC
Velocidad máxima media en intervalos de 10 minutos(hora)
DESCASC
Precipitaciones diarias en mm
DESCASC
Precipitaciones de 00:00 a 06:00 en mm
DESCASC
Precipitaciones de 06:00 a 12:00 en mm
DESCASC
Precipitaciones de 12:00 a 18:00 en mm
DESCASC
Precipitaciones de 18:00 a 24:00 en mm
DESCASC
21-08-2017 31.7 (16:00) 10.9 (09:30) 21.3 5.28 (00:20) 1.11 (00:10) 0 0 0 0 0
20-08-2017 25.9 (16:30) 11.4 (05:10) 18.6 9.72 (20:40) 4.17 (20:40) 0 0 0 0 0
19-08-2017 23.1 (15:10) 13.2 (07:50) 18.2 9.72 (04:40) 4.44 (04:30) 0 0 0 0 0
18-08-2017 26.6 (13:10) 13.6 (07:10) 20.1 9.17 (13:30) 4.44 (17:50) 0 0 0 0 0
17-08-2017 31.1 (16:10) 11.4 (00:00) 21.3 6.67 (17:00) 2.5 (17:20) 0 0 0 0 0
16-08-2017 27.9 (16:40) 13 (00:00) 20.4 6.67 (18:10) 3.06 (17:00) 0 0 0 0 0
15-08-2017 24 (15:30) 13.3 (00:00) 18.7 6.67 (18:40) 2.5 (17:50) 2 0 2 0 0
14-08-2017 29.4 (15:50) 10.7 (06:30) 20 5.28 (14:30) 1.39 (22:20) 0 0 0 0 0
13-08-2017 28.2 (16:30) 10 (00:00) 19.1 4.44 (18:00) 1.67 (18:20) 0 0 0 0 0
12-08-2017 24.6 (16:20) 6.7 (00:00) 15.7 8.06 (00:20) 4.44 (00:10) 0 0 0 0 0
11-08-2017 18.4 (16:30) 7.9 (00:00) 13.1 10 (01:00) 4.44 (23:50) 0 0 0 0 0
10-08-2017 15 (15:30) 8.7 (00:00) 11.8 10.83 (23:40) 3.89 (23:50) 0.2 0 0.2 0 0
09-08-2017 13.9 (17:00) 6.8 (00:00) 10.3 9.44 (22:40) 3.33 (15:00) 0 0 0 0 0
08-08-2017 18 (16:50) 9.6 (00:00) 13.8 9.17 (10:20) 3.89 (14:40) 0.2 0 0.2 0 0
07-08-2017 26.4 (16:30) 13.5 (00:00) 19.9 11.94 (23:00) 3.06 (23:00) 7.8 0 0 0 7.8
06-08-2017 21.1 (15:30) 11.7 (00:00) 16.4 8.89 (02:50) 3.89 (00:10) 11 11 0 0 0
05-08-2017 28.2 (13:40) 15.2 (00:00) 21.7 10 (23:59) 4.17 (23:30) 0 0 0 0 0
04-08-2017 31 (14:50) 14.4 (00:00) 22.7 7.78 (20:20) 3.61 (20:00) 0 0 0 0 0
03-08-2017 31.8 (15:50) 15.4 (00:00) 23.6 6.11 (17:40) 2.78 (17:40) 0 0 0 0 0
02-08-2017 26.7 (14:10) 14.4 (00:00) 20.6 7.5 (16:20) 1.94 (16:20) 0 0 0 0 0
01-08-2017 27.5 (15:00) 14.6 (00:00) 21.1 8.33 (14:00) 1.67 (14:00) 0 0 0 0 0
31-07-2017 30.5 (15:50) 13.3 (00:00) 21.9 8.61 (13:50) 2.78 (20:30) 0 0 0 0 0
30-07-2017 29.4 (15:50) 16 (00:00) 22.7 6.39 (16:30) 1.39 (14:30) 3.8 0 0 0 3.8
29-07-2017 29.3 (15:50) 14.1 (00:00) 21.7 4.72 (14:10) 1.11 (17:00) 0 0 0 0 0
28-07-2017 30.4 (16:30) 12.2 (00:00) 21.3 6.39 (14:40) 1.39 (14:40) 0 0 0 0 0
27-07-2017 30.1 (15:50) 11.8 (00:00) 21 6.94 (22:00) 2.78 (21:50) 0 0 0 0 0
26-07-2017 23.5 (16:50) 10.6 (00:00) 17.1 10.28 (02:40) 4.72 (02:40) 0 0 0 0 0
25-07-2017 19.6 (16:20) 10.6 (00:00) 15.1 9.44 (11:00) 3.89 (02:00) 0 0 0 0 0
24-07-2017 19.5 (15:10) 12.4 (00:00) 15.9 11.11 (16:20) 4.44 (16:20) 0 0 0 0 0
23-07-2017 26.4 (16:10) 13.5 (00:00) 19.9 7.22 (18:10) 3.33 (23:30) 0 0 0 0 0

Gráficas

Temp. máximas Temp. mínimas Temp. medias Precipitaciones Rachas de viento máximas Velocidades máximas media en intervalos de 10 minutos

Datos horarios

Fecha y hora oficial Temperatura (ºC) Velocidad del viento (km/h) Dirección del viento Racha (km/h) Dirección de racha Precipitación (mm) Presión (hPa) Tendencia (hPa) Humedad (%)